Time;durP1;ratioP1;P1;durP2;ratioP2;P2;SDS_P1;SDS_P2;PMS_P1;PMS_P2;Temp;Humidity;BMP_temperature;BMP_pressure;BME280_temperature;BME280_humidity;BME280_pressure;Samples;Min_cycle;Max_cycle;Signal;HPM_P1;HPM_P2
2022/09/05 00:01:30;;;;;;;11.65;2.25;;;;;;;;;;5133933;27;20045;-47
2022/09/05 00:04:15;;;;;;;9.38;3.85;;;;;;;;;;5136028;27;20530;-44
2022/09/05 00:06:48;;;;;;;8.57;2.20;;;;;;;;;;5113421;27;20054;-44
2022/09/05 00:09:29;;;;;;;11.63;2.15;;;;;;;;;;5134366;27;20054;-48
2022/09/05 00:11:57;;;;;;;16.05;4.00;;;;;;;;;;5125647;27;20043;-42
2022/09/05 00:14:36;;;;;;;10.15;4.05;;;;;;;;;;5133054;27;20027;-44
2022/09/05 00:17:07;;;;;;;16.85;3.85;;;;;;;;;;5130572;27;20031;-46
2022/09/05 00:19:49;;;;;;;4.68;2.30;;;;;;;;;;5132951;27;20019;-50
2022/09/05 00:22:33;;;;;;;8.25;2.30;;;;;;;;;;5130645;27;20030;-45
2022/09/05 00:25:04;;;;;;;8.15;1.92;;;;;;;;;;5131119;27;20972;-45
2022/09/05 00:27:37;;;;;;;22.80;4.35;;;;;;;;;;5133489;27;20054;-45
2022/09/05 00:30:13;;;;;;;18.48;3.40;;;;;;;;;;5132826;27;20019;-45
2022/09/05 00:32:48;;;;;;;6.43;1.98;;;;;;;;;;5132577;27;20034;-45
2022/09/05 00:35:17;;;;;;;9.82;2.45;;;;;;;;;;5131248;27;20478;-46
2022/09/05 00:37:45;;;;;;;13.77;3.80;;;;;;;;;;5132545;27;20031;-43
2022/09/05 00:40:13;;;;;;;6.68;2.80;;;;;;;;;;5130709;27;20011;-43
2022/09/05 00:42:38;;;;;;;15.02;3.20;;;;;;;;;;5134465;27;20114;-44
2022/09/05 00:45:06;;;;;;;10.48;3.25;;;;;;;;;;5127683;27;20152;-43
2022/09/05 00:47:34;;;;;;;8.52;1.67;;;;;;;;;;5130372;27;20505;-47
2022/09/05 00:50:03;;;;;;;10.65;4.20;;;;;;;;;;5131331;27;20027;-44
2022/09/05 00:52:31;;;;;;;13.23;2.58;;;;;;;;;;5130264;27;20022;-47
2022/09/05 00:55:15;;;;;;;13.10;1.98;;;;;;;;;;5124232;27;20125;-44
2022/09/05 00:58:07;;;;;;;13.90;3.08;;;;;;;;;;5133828;27;20023;-46
2022/09/05 01:00:32;;;;;;;5.75;1.55;;;;;;;;;;5134688;27;20019;-43
2022/09/05 01:03:08;;;;;;;18.27;3.10;;;;;;;;;;5135688;27;20125;-43
2022/09/05 01:05:52;;;;;;;8.55;3.55;;;;;;;;;;5133526;27;20596;-44
2022/09/05 01:08:26;;;;;;;12.65;3.35;;;;;;;;;;5133642;27;20054;-46
2022/09/05 01:11:07;;;;;;;18.58;3.75;;;;;;;;;;5132067;27;20020;-44
2022/09/05 01:13:33;;;;;;;41.15;6.15;;;;;;;;;;5129869;27;20663;-45
2022/09/05 01:16:04;;;;;;;10.57;3.75;;;;;;;;;;5132747;27;20031;-46
2022/09/05 01:18:48;;;;;;;9.88;3.83;;;;;;;;;;5123667;27;20051;-47
2022/09/05 01:21:32;;;;;;;23.75;3.00;;;;;;;;;;5130050;27;20469;-48
2022/09/05 01:24:07;;;;;;;13.38;2.63;;;;;;;;;;5129699;27;20034;-51
2022/09/05 01:26:39;;;;;;;22.30;3.67;;;;;;;;;;5126046;27;20020;-50
2022/09/05 01:29:16;;;;;;;13.40;3.58;;;;;;;;;;5127520;27;20524;-44
2022/09/05 01:31:42;;;;;;;9.63;3.33;;;;;;;;;;5134199;27;20019;-44
2022/09/05 01:34:16;;;;;;;12.52;3.55;;;;;;;;;;5137773;27;20023;-47
2022/09/05 01:36:52;;;;;;;28.67;3.05;;;;;;;;;;5133205;27;20069;-48
2022/09/05 01:39:27;;;;;;;9.15;3.08;;;;;;;;;;5133007;27;20024;-48
2022/09/05 01:41:56;;;;;;;7.57;1.98;;;;;;;;;;5133845;27;20015;-45
2022/09/05 01:44:29;;;;;;;22.08;5.13;;;;;;;;;;5131612;27;20431;-46
2022/09/05 01:46:58;;;;;;;20.77;3.88;;;;;;;;;;5134796;27;20020;-48
2022/09/05 01:49:24;;;;;;;10.30;3.58;;;;;;;;;;5135148;27;20030;-48
2022/09/05 01:52:12;;;;;;;24.67;4.53;;;;;;;;;;5133068;27;20020;-44
2022/09/05 01:54:56;;;;;;;5.10;2.38;;;;;;;;;;5086724;27;20621;-43
2022/09/05 01:57:24;;;;;;;19.10;4.00;;;;;;;;;;5138630;27;20027;-45
2022/09/05 01:59:52;;;;;;;6.35;2.25;;;;;;;;;;5141511;27;20095;-50
2022/09/05 02:02:27;;;;;;;6.90;2.58;;;;;;;;;;5135002;27;20385;-44
2022/09/05 02:05:10;;;;;;;19.83;3.35;;;;;;;;;;5132677;27;20072;-46
2022/09/05 02:07:55;;;;;;;18.90;4.70;;;;;;;;;;5132907;27;20053;-46
2022/09/05 02:10:28;;;;;;;25.80;4.35;;;;;;;;;;5132402;27;20160;-43
2022/09/05 02:12:57;;;;;;;17.45;2.95;;;;;;;;;;5127825;27;20019;-44
2022/09/05 02:15:27;;;;;;;18.45;4.68;;;;;;;;;;5131943;27;20048;-43
2022/09/05 02:17:59;;;;;;;9.27;4.70;;;;;;;;;;5133362;27;20023;-43
2022/09/05 02:20:32;;;;;;;15.98;3.15;;;;;;;;;;5137043;27;20773;-42
2022/09/05 02:22:59;;;;;;;15.40;3.75;;;;;;;;;;5135618;27;20653;-45
2022/09/05 02:25:45;;;;;;;20.08;4.65;;;;;;;;;;5129209;27;20554;-45
2022/09/05 02:28:13;;;;;;;5.43;2.25;;;;;;;;;;5081447;27;20114;-45
2022/09/05 02:30:43;;;;;;;11.52;4.15;;;;;;;;;;5134552;27;20088;-44
2022/09/05 02:33:28;;;;;;;25.42;6.47;;;;;;;;;;5135088;27;20469;-43
2022/09/05 02:36:04;;;;;;;14.70;6.50;;;;;;;;;;5132206;27;20027;-47
2022/09/05 02:38:36;;;;;;;20.67;5.15;;;;;;;;;;5132635;27;20023;-43
2022/09/05 02:41:07;;;;;;;5.25;2.03;;;;;;;;;;5136253;27;20020;-43
2022/09/05 02:43:38;;;;;;;11.25;3.50;;;;;;;;;;5129347;27;20515;-45
2022/09/05 02:46:10;;;;;;;5.40;1.30;;;;;;;;;;5131482;27;20018;-45
2022/09/05 02:48:35;;;;;;;8.68;2.10;;;;;;;;;;5136410;27;20049;-44
2022/09/05 02:51:09;;;;;;;11.75;3.80;;;;;;;;;;5134797;27;20043;-48
2022/09/05 02:53:37;;;;;;;26.48;3.33;;;;;;;;;;5130119;27;20015;-44
2022/09/05 02:56:17;;;;;;;16.30;4.03;;;;;;;;;;5128525;27;20088;-51
2022/09/05 02:58:54;;;;;;;19.20;3.97;;;;;;;;;;5117226;27;20508;-47
2022/09/05 03:01:29;;;;;;;10.88;3.53;;;;;;;;;;5138921;27;20103;-43
2022/09/05 03:03:59;;;;;;;15.18;2.70;;;;;;;;;;5129701;27;20492;-44
2022/09/05 03:06:32;;;;;;;14.75;5.40;;;;;;;;;;5131787;27;20087;-46
2022/09/05 03:09:16;;;;;;;14.35;4.55;;;;;;;;;;5132680;27;20121;-44
2022/09/05 03:12:02;;;;;;;10.43;3.85;;;;;;;;;;5135200;27;20056;-42
2022/09/05 03:14:57;;;;;;;10.63;4.40;;;;;;;;;;5126240;27;20071;-43
2022/09/05 03:17:58;;;;;;;6.63;2.40;;;;;;;;;;5132171;27;20386;-44
2022/09/05 03:20:43;;;;;;;18.33;4.20;;;;;;;;;;5057293;28;20028;-48
2022/09/05 03:23:23;;;;;;;6.97;3.70;;;;;;;;;;5125024;27;20052;-45
2022/09/05 03:26:04;;;;;;;14.68;4.03;;;;;;;;;;5137468;27;20023;-43
2022/09/05 03:28:33;;;;;;;16.40;4.28;;;;;;;;;;5131687;27;20643;-45
2022/09/05 03:30:58;;;;;;;8.48;3.67;;;;;;;;;;5133757;27;20023;-44
2022/09/05 03:33:42;;;;;;;7.07;3.38;;;;;;;;;;5134256;27;20025;-44
2022/09/05 03:36:08;;;;;;;17.92;4.38;;;;;;;;;;5131159;27;20028;-44
2022/09/05 03:38:51;;;;;;;12.90;3.03;;;;;;;;;;5133773;27;20054;-44
2022/09/05 03:41:17;;;;;;;9.63;2.65;;;;;;;;;;5135132;27;20121;-44
2022/09/05 03:44:12;;;;;;;20.90;5.00;;;;;;;;;;5132215;27;20097;-47
2022/09/05 03:46:40;;;;;;;7.13;3.40;;;;;;;;;;5113127;27;20046;-45
2022/09/05 03:49:11;;;;;;;12.80;4.38;;;;;;;;;;5132313;27;20025;-46
2022/09/05 03:51:40;;;;;;;17.33;4.13;;;;;;;;;;5131600;27;20019;-44
2022/09/05 03:54:25;;;;;;;18.10;3.85;;;;;;;;;;5136196;27;20027;-44
2022/09/05 03:57:17;;;;;;;19.13;3.67;;;;;;;;;;5129565;27;20035;-45
2022/09/05 03:59:54;;;;;;;20.15;5.50;;;;;;;;;;5095143;27;20038;-43
2022/09/05 04:02:26;;;;;;;8.70;4.05;;;;;;;;;;5134714;27;20030;-47
2022/09/05 04:05:00;;;;;;;11.70;2.95;;;;;;;;;;5133907;27;20032;-42
2022/09/05 04:07:29;;;;;;;13.63;2.30;;;;;;;;;;5132919;27;20023;-42
2022/09/05 04:10:00;;;;;;;7.93;1.98;;;;;;;;;;5136180;27;20050;-43
2022/09/05 04:12:44;;;;;;;20.75;5.97;;;;;;;;;;5135206;27;20079;-43
2022/09/05 04:15:30;;;;;;;10.90;4.10;;;;;;;;;;5130215;27;20019;-45
2022/09/05 04:17:58;;;;;;;10.98;3.90;;;;;;;;;;5080959;27;20046;-47
2022/09/05 04:20:26;;;;;;;22.60;4.30;;;;;;;;;;5131554;27;20477;-42
2022/09/05 04:23:10;;;;;;;11.93;4.07;;;;;;;;;;5131009;27;20024;-43
2022/09/05 04:26:01;;;;;;;10.40;6.53;;;;;;;;;;5129649;27;20473;-45
2022/09/05 04:28:45;;;;;;;17.77;4.38;;;;;;;;;;5133857;27;20094;-43
2022/09/05 04:31:29;;;;;;;16.83;3.15;;;;;;;;;;5127919;27;20019;-42
2022/09/05 04:34:00;;;;;;;10.88;4.13;;;;;;;;;;5132642;27;20386;-42
2022/09/05 04:36:31;;;;;;;9.98;3.55;;;;;;;;;;5131502;27;20171;-43
2022/09/05 04:39:15;;;;;;;8.93;4.90;;;;;;;;;;5136534;27;20026;-44
2022/09/05 04:41:43;;;;;;;27.23;4.03;;;;;;;;;;5137722;27;20027;-43
2022/09/05 04:44:17;;;;;;;27.58;6.25;;;;;;;;;;5128055;27;20020;-43
2022/09/05 04:46:51;;;;;;;20.88;5.22;;;;;;;;;;5129800;27;20011;-48
2022/09/05 04:49:37;;;;;;;15.35;4.03;;;;;;;;;;5123824;27;20020;-41
2022/09/05 04:52:11;;;;;;;6.22;2.88;;;;;;;;;;5128952;27;20409;-46
2022/09/05 04:54:39;;;;;;;10.02;3.70;;;;;;;;;;5131359;27;20055;-44
2022/09/05 04:57:07;;;;;;;26.25;4.97;;;;;;;;;;5133321;27;20019;-43
2022/09/05 04:59:48;;;;;;;8.70;3.53;;;;;;;;;;5136252;27;20063;-43
2022/09/05 05:02:13;;;;;;;;;;;;;;;;;;5130336;27;20025;-43
2022/09/05 05:04:38;;;;;;;4.70;1.15;;;;;;;;;;5130650;27;19919;-44
2022/09/05 05:07:15;;;;;;;11.82;3.13;;;;;;;;;;5130140;27;20027;-43
2022/09/05 05:09:46;;;;;;;11.73;4.55;;;;;;;;;;5127175;27;20092;-45
2022/09/05 05:12:41;;;;;;;16.45;3.65;;;;;;;;;;5129987;27;20015;-42
2022/09/05 05:15:09;;;;;;;4.45;2.10;;;;;;;;;;5044148;27;20426;-44
2022/09/05 05:17:34;;;;;;;18.90;3.30;;;;;;;;;;5131173;27;20019;-47
2022/09/05 05:20:08;;;;;;;5.05;2.28;;;;;;;;;;5130365;27;20038;-44
2022/09/05 05:22:35;;;;;;;21.10;2.95;;;;;;;;;;5131994;27;20031;-46
2022/09/05 05:25:00;;;;;;;17.33;4.22;;;;;;;;;;5129821;27;20019;-43
2022/09/05 05:27:31;;;;;;;16.13;4.75;;;;;;;;;;5131237;27;20779;-42
2022/09/05 05:30:00;;;;;;;11.93;4.47;;;;;;;;;;5133638;27;20023;-43
2022/09/05 05:32:39;;;;;;;31.27;5.32;;;;;;;;;;5132794;27;20015;-42
2022/09/05 05:35:09;;;;;;;20.45;4.63;;;;;;;;;;5131400;27;20063;-41
2022/09/05 05:37:37;;;;;;;26.65;4.18;;;;;;;;;;5130934;27;20105;-42
2022/09/05 05:40:24;;;;;;;16.40;4.20;;;;;;;;;;5129705;27;20031;-44
2022/09/05 05:42:49;;;;;;;24.65;5.45;;;;;;;;;;5131725;27;20486;-41
2022/09/05 05:45:16;;;;;;;22.02;4.95;;;;;;;;;;5133752;27;20027;-42
2022/09/05 05:47:43;;;;;;;10.27;4.75;;;;;;;;;;5132894;27;20458;-41
2022/09/05 05:50:09;;;;;;;9.93;3.90;;;;;;;;;;5136263;27;20141;-41
2022/09/05 05:52:52;;;;;;;16.08;3.97;;;;;;;;;;5132896;27;20530;-40
2022/09/05 05:55:30;;;;;;;13.40;4.95;;;;;;;;;;5132209;27;20049;-40
2022/09/05 05:57:55;;;;;;;15.38;4.93;;;;;;;;;;5136945;27;20478;-40
2022/09/05 06:00:29;;;;;;;22.03;6.43;;;;;;;;;;5127823;27;20030;-40
2022/09/05 06:03:18;;;;;;;27.98;9.15;;;;;;;;;;5134297;27;20323;-40
2022/09/05 06:05:58;;;;;;;21.15;5.43;;;;;;;;;;5078449;27;20039;-41
2022/09/05 06:08:49;;;;;;;16.05;4.63;;;;;;;;;;5128527;27;20553;-40
2022/09/05 06:11:15;;;;;;;25.88;5.22;;;;;;;;;;5127805;27;20105;-42
2022/09/05 06:13:53;;;;;;;11.57;2.95;;;;;;;;;;5127631;27;20019;-42
2022/09/05 06:16:33;;;;;;;27.77;6.72;;;;;;;;;;5127036;27;20014;-41
2022/09/05 06:19:14;;;;;;;35.88;5.28;;;;;;;;;;5133005;27;20015;-41
2022/09/05 06:21:39;;;;;;;;;;;;;;;;;;5132586;27;20118;-40
2022/09/05 06:24:07;;;;;;;15.35;3.97;;;;;;;;;;5136087;27;19922;-45
2022/09/05 06:26:41;;;;;;;13.85;5.10;;;;;;;;;;5128555;27;20067;-44
2022/09/05 06:29:14;;;;;;;15.90;3.88;;;;;;;;;;5131160;27;20015;-44
2022/09/05 06:31:42;;;;;;;18.65;3.47;;;;;;;;;;5132917;27;20053;-43
2022/09/05 06:34:20;;;;;;;7.55;1.70;;;;;;;;;;5136791;27;20044;-42
2022/09/05 06:36:48;;;;;;;12.63;3.10;;;;;;;;;;5133976;27;20031;-41
2022/09/05 06:39:16;;;;;;;13.75;4.22;;;;;;;;;;5128299;27;20016;-44
2022/09/05 06:42:00;;;;;;;17.25;4.32;;;;;;;;;;5134398;27;20019;-41
2022/09/05 06:44:44;;;;;;;15.98;3.97;;;;;;;;;;5132618;27;20106;-43
2022/09/05 06:47:11;;;;;;;24.60;6.10;;;;;;;;;;5136673;27;20011;-40
2022/09/05 06:49:44;;;;;;;15.30;3.63;;;;;;;;;;5131972;27;20019;-40
2022/09/05 06:52:42;;;;;;;7.15;3.72;;;;;;;;;;5133471;27;20127;-40
2022/09/05 06:55:08;;;;;;;12.38;4.55;;;;;;;;;;5087794;27;20534;-41
2022/09/05 06:57:36;;;;;;;17.77;5.53;;;;;;;;;;5131473;27;20489;-43
2022/09/05 07:00:24;;;;;;;15.80;4.63;;;;;;;;;;5123141;27;20066;-41
2022/09/05 07:03:00;;;;;;;13.48;2.50;;;;;;;;;;5130849;27;20142;-41
2022/09/05 07:05:25;;;;;;;15.85;3.80;;;;;;;;;;5134273;27;20076;-40
2022/09/05 07:07:56;;;;;;;12.23;5.53;;;;;;;;;;5130490;27;20406;-39
2022/09/05 07:10:22;;;;;;;13.40;2.95;;;;;;;;;;5128448;27;20015;-40
2022/09/05 07:13:14;;;;;;;10.00;3.33;;;;;;;;;;5133363;27;20026;-39
2022/09/05 07:15:49;;;;;;;20.15;4.32;;;;;;;;;;5105469;27;20180;-43
2022/09/05 07:18:21;;;;;;;10.43;3.65;;;;;;;;;;5131061;27;20023;-39
2022/09/05 07:21:04;;;;;;;7.63;3.30;;;;;;;;;;5133869;27;20076;-41
2022/09/05 07:23:39;;;;;;;15.38;3.47;;;;;;;;;;5132467;27;20030;-40
2022/09/05 07:26:05;;;;;;;13.32;5.45;;;;;;;;;;5138623;27;20030;-40
2022/09/05 07:28:32;;;;;;;15.55;4.15;;;;;;;;;;5135103;27;20029;-40
2022/09/05 07:31:02;;;;;;;10.88;2.92;;;;;;;;;;5135653;27;20434;-39
2022/09/05 07:33:30;;;;;;;14.38;3.58;;;;;;;;;;5132976;27;20521;-45
2022/09/05 07:36:02;;;;;;;24.85;4.30;;;;;;;;;;5138781;27;20033;-44
2022/09/05 07:38:28;;;;;;;9.88;3.17;;;;;;;;;;5135967;27;20113;-41
2022/09/05 07:41:04;;;;;;;12.88;4.15;;;;;;;;;;5131807;27;20499;-43
2022/09/05 07:43:35;;;;;;;16.35;3.70;;;;;;;;;;5130640;27;20027;-41
2022/09/05 07:46:00;;;;;;;;;;;;;;;;;;5133530;27;20394;-44
2022/09/05 07:48:27;;;;;;;8.50;3.13;;;;;;;;;;5136362;27;19906;-45
2022/09/05 07:50:57;;;;;;;11.50;3.53;;;;;;;;;;5131042;27;20067;-42
2022/09/05 07:53:23;;;;;;;10.10;3.90;;;;;;;;;;5131846;27;20077;-39
2022/09/05 07:55:52;;;;;;;13.65;2.80;;;;;;;;;;5127758;27;20386;-40
2022/09/05 07:58:19;;;;;;;23.40;3.55;;;;;;;;;;5132390;27;20015;-42
2022/09/05 08:00:49;;;;;;;25.45;5.47;;;;;;;;;;5128808;27;20019;-42
2022/09/05 08:03:15;;;;;;;;;;;;;;;;;;5129875;27;20106;-42
2022/09/05 08:05:48;;;;;;;14.27;3.28;;;;;;;;;;5133386;27;20266;-45
2022/09/05 08:08:18;;;;;;;19.38;4.22;;;;;;;;;;5128362;27;20058;-44
2022/09/05 08:11:02;;;;;;;8.52;2.28;;;;;;;;;;5128803;27;20027;-41
2022/09/05 08:13:48;;;;;;;8.90;2.22;;;;;;;;;;5132641;27;20019;-41
2022/09/05 08:16:17;;;;;;;15.18;4.22;;;;;;;;;;5133564;27;20031;-44
2022/09/05 08:18:44;;;;;;;14.52;4.50;;;;;;;;;;5130329;27;20030;-42
2022/09/05 08:21:12;;;;;;;14.27;3.08;;;;;;;;;;5135902;27;20038;-44
2022/09/05 08:23:56;;;;;;;30.45;4.82;;;;;;;;;;5130467;27;20079;-43
2022/09/05 08:26:22;;;;;;;8.25;2.00;;;;;;;;;;5128014;27;20015;-42
2022/09/05 08:28:59;;;;;;;22.63;5.88;;;;;;;;;;5128378;27;20023;-40
2022/09/05 08:31:33;;;;;;;4.82;2.70;;;;;;;;;;5132804;27;20015;-41
2022/09/05 08:34:01;;;;;;;11.25;5.47;;;;;;;;;;5137344;27;20023;-42
2022/09/05 08:36:33;;;;;;;12.35;6.25;;;;;;;;;;5133963;27;20094;-41
2022/09/05 08:38:59;;;;;;;22.30;5.75;;;;;;;;;;5132762;27;20629;-41
2022/09/05 08:41:27;;;;;;;22.67;4.45;;;;;;;;;;5135079;27;20034;-40
2022/09/05 08:44:05;;;;;;;20.63;5.88;;;;;;;;;;5132238;27;20029;-41
2022/09/05 08:46:34;;;;;;;6.03;2.38;;;;;;;;;;5133123;27;20027;-43
2022/09/05 08:49:18;;;;;;;7.28;1.55;;;;;;;;;;5127005;27;20022;-41
2022/09/05 08:51:43;;;;;;;15.60;6.00;;;;;;;;;;5129742;27;20498;-41
2022/09/05 08:54:09;;;;;;;16.65;3.50;;;;;;;;;;5134607;27;20053;-42
2022/09/05 08:56:57;;;;;;;7.60;2.20;;;;;;;;;;5133640;27;20030;-41
2022/09/05 08:59:22;;;;;;;15.32;3.83;;;;;;;;;;5111030;27;20561;-41
2022/09/05 09:01:50;;;;;;;6.32;1.83;;;;;;;;;;5132819;27;20026;-43
2022/09/05 09:04:42;;;;;;;9.55;2.67;;;;;;;;;;5132915;27;20059;-41
2022/09/05 09:07:20;;;;;;;15.68;9.55;;;;;;;;;;5090349;27;20534;-43
2022/09/05 09:09:57;;;;;;;8.98;3.15;;;;;;;;;;5136049;27;20079;-42
2022/09/05 09:12:51;;;;;;;12.52;3.33;;;;;;;;;;5130156;27;20018;-39
2022/09/05 09:15:16;;;;;;;18.10;4.47;;;;;;;;;;5132775;27;20089;-41
2022/09/05 09:17:43;;;;;;;20.13;7.05;;;;;;;;;;5128644;27;20018;-40
2022/09/05 09:20:27;;;;;;;14.05;4.25;;;;;;;;;;5128585;27;20023;-40
2022/09/05 09:22:58;;;;;;;21.92;4.63;;;;;;;;;;5130921;27;20026;-41
2022/09/05 09:25:28;;;;;;;10.35;4.28;;;;;;;;;;5127852;27;20022;-45
2022/09/05 09:27:56;;;;;;;14.15;3.40;;;;;;;;;;5132363;27;20030;-46
2022/09/05 09:30:22;;;;;;;3.33;1.60;;;;;;;;;;5133400;27;20041;-40
2022/09/05 09:32:48;;;;;;;9.07;2.92;;;;;;;;;;5128361;27;20556;-41
2022/09/05 09:35:20;;;;;;;23.50;5.70;;;;;;;;;;5129868;27;20054;-39
2022/09/05 09:37:51;;;;;;;17.73;3.80;;;;;;;;;;5136458;27;20026;-44
2022/09/05 09:40:35;;;;;;;12.70;4.50;;;;;;;;;;5132371;27;20050;-41
2022/09/05 09:43:19;;;;;;;11.93;4.25;;;;;;;;;;5131697;27;20030;-42
2022/09/05 09:45:52;;;;;;;10.80;3.53;;;;;;;;;;5134620;27;20030;-42
2022/09/05 09:48:36;;;;;;;7.95;2.72;;;;;;;;;;5130299;27;20030;-36
2022/09/05 09:51:21;;;;;;;14.95;3.97;;;;;;;;;;5129120;27;20020;-44
2022/09/05 09:54:03;;;;;;;9.20;3.15;;;;;;;;;;5132248;27;20045;-47
2022/09/05 09:56:29;;;;;;;15.50;2.33;;;;;;;;;;5131501;27;20067;-49
2022/09/05 09:58:54;;;;;;;10.15;4.25;;;;;;;;;;5131878;27;20486;-47
2022/09/05 10:01:33;;;;;;;11.82;4.50;;;;;;;;;;5131068;27;20037;-52
2022/09/05 10:04:14;;;;;;;8.50;2.70;;;;;;;;;;5132071;27;20117;-47
2022/09/05 10:06:39;;;;;;;;;;;;;;;;;;5133727;27;20034;-47
2022/09/05 10:09:05;;;;;;;8.27;2.85;;;;;;;;;;5132988;27;19903;-47
2022/09/05 10:11:38;;;;;;;16.87;3.40;;;;;;;;;;5132638;27;20015;-51
2022/09/05 10:14:06;;;;;;;17.50;4.43;;;;;;;;;;5129189;27;20312;-48
2022/09/05 10:16:38;;;;;;;14.73;4.22;;;;;;;;;;5132597;27;20042;-45
2022/09/05 10:19:15;;;;;;;10.32;3.10;;;;;;;;;;5136265;27;20143;-45
2022/09/05 10:21:43;;;;;;;32.58;5.47;;;;;;;;;;5133406;27;20035;-46
2022/09/05 10:24:29;;;;;;;15.18;4.57;;;;;;;;;;5136637;27;20018;-48
2022/09/05 10:27:00;;;;;;;8.80;2.78;;;;;;;;;;5133427;27;20399;-50
2022/09/05 10:29:45;;;;;;;11.63;4.38;;;;;;;;;;5133243;27;20137;-49
2022/09/05 10:32:31;;;;;;;14.20;5.88;;;;;;;;;;5134634;27;20331;-48
2022/09/05 10:35:08;;;;;;;29.90;4.40;;;;;;;;;;5126810;27;20110;-46
2022/09/05 10:37:40;;;;;;;18.00;5.70;;;;;;;;;;5135633;27;20023;-50
2022/09/05 10:40:08;;;;;;;14.80;5.80;;;;;;;;;;5132787;27;20026;-46
2022/09/05 10:42:37;;;;;;;22.23;6.03;;;;;;;;;;5112081;27;20124;-50
2022/09/05 10:45:03;;;;;;;14.85;5.15;;;;;;;;;;5136375;27;20026;-49
2022/09/05 10:47:38;;;;;;;9.80;3.78;;;;;;;;;;5133225;27;20015;-47
2022/09/05 10:50:15;;;;;;;16.85;1.98;;;;;;;;;;5130909;27;20439;-47
2022/09/05 10:52:49;;;;;;;11.52;2.65;;;;;;;;;;5130671;27;20027;-48
2022/09/05 10:55:16;;;;;;;15.13;1.70;;;;;;;;;;5136273;27;20574;-44
2022/09/05 10:57:50;;;;;;;11.13;3.13;;;;;;;;;;5136468;27;20109;-47
2022/09/05 11:00:21;;;;;;;7.50;2.35;;;;;;;;;;5131228;27;20015;-47
2022/09/05 11:02:48;;;;;;;17.02;6.43;;;;;;;;;;5130695;27;20035;-47
2022/09/05 11:05:21;;;;;;;8.27;3.03;;;;;;;;;;5132605;27;20548;-47
2022/09/05 11:07:58;;;;;;;20.10;3.60;;;;;;;;;;5131565;27;20106;-50
2022/09/05 11:10:43;;;;;;;10.10;3.28;;;;;;;;;;5135209;27;20122;-45
2022/09/05 11:13:19;;;;;;;10.75;2.17;;;;;;;;;;5133923;27;20025;-53
2022/09/05 11:15:59;;;;;;;4.28;2.05;;;;;;;;;;5134522;27;20015;-51
2022/09/05 11:18:43;;;;;;;1.23;0.50;;;;;;;;;;5134086;27;20034;-54
2022/09/05 11:21:27;;;;;;;3.60;1.52;;;;;;;;;;5134483;27;20056;-49
2022/09/05 11:23:54;;;;;;;1.67;0.73;;;;;;;;;;5127868;27;20569;-48
2022/09/05 11:26:23;;;;;;;8.88;2.33;;;;;;;;;;5135244;27;20031;-48
2022/09/05 11:28:50;;;;;;;7.80;2.80;;;;;;;;;;5133612;27;20026;-52
2022/09/05 11:31:18;;;;;;;8.73;3.38;;;;;;;;;;5135310;27;20159;-52
2022/09/05 11:34:02;;;;;;;8.75;2.03;;;;;;;;;;5131813;27;20071;-52
2022/09/05 11:36:32;;;;;;;10.25;2.83;;;;;;;;;;5131551;27;20027;-46
2022/09/05 11:38:58;;;;;;;14.18;3.80;;;;;;;;;;5134259;27;20102;-52
2022/09/05 11:41:23;;;;;;;14.75;3.70;;;;;;;;;;5130235;27;20189;-51
2022/09/05 11:44:07;;;;;;;12.80;1.93;;;;;;;;;;5137556;27;20102;-50
2022/09/05 11:46:35;;;;;;;12.55;3.55;;;;;;;;;;5132071;27;20802;-50
2022/09/05 11:49:01;;;;;;;12.57;4.47;;;;;;;;;;5132101;27;20072;-47
2022/09/05 11:51:46;;;;;;;20.83;4.77;;;;;;;;;;5133634;27;20381;-50
2022/09/05 11:54:25;;;;;;;4.18;1.60;;;;;;;;;;5127673;27;20326;-52
2022/09/05 11:56:50;;;;;;;9.15;2.60;;;;;;;;;;5126679;27;20703;-48
2022/09/05 11:59:18;;;;;;;6.97;2.13;;;;;;;;;;5131057;27;20019;-46
2022/09/05 12:02:05;;;;;;;5.25;1.60;;;;;;;;;;5137523;27;20019;-48
2022/09/05 12:04:45;;;;;;;16.00;1.98;;;;;;;;;;5128582;27;20033;-47
2022/09/05 12:07:14;;;;;;;14.30;3.07;;;;;;;;;;5130104;27;20027;-46
2022/09/05 12:09:40;;;;;;;22.70;4.57;;;;;;;;;;5132925;27;20053;-49
2022/09/05 12:12:22;;;;;;;4.37;2.10;;;;;;;;;;5132769;27;20019;-50
2022/09/05 12:14:56;;;;;;;9.00;2.78;;;;;;;;;;5132032;27;20283;-49
2022/09/05 12:17:28;;;;;;;9.20;3.00;;;;;;;;;;5118722;27;20023;-47
2022/09/05 12:20:02;;;;;;;5.15;3.05;;;;;;;;;;5128755;27;20019;-47
2022/09/05 12:22:29;;;;;;;17.15;4.28;;;;;;;;;;5126390;27;20486;-46
2022/09/05 12:24:54;;;;;;;16.30;2.90;;;;;;;;;;5132832;27;20031;-51
2022/09/05 12:27:22;;;;;;;13.57;4.47;;;;;;;;;;5132694;27;20029;-46
2022/09/05 12:29:53;;;;;;;5.68;3.03;;;;;;;;;;5133062;27;20022;-48
2022/09/05 12:32:24;;;;;;;9.05;2.60;;;;;;;;;;5135094;27;20015;-46
2022/09/05 12:34:56;;;;;;;14.65;2.55;;;;;;;;;;5131749;27;20118;-49
2022/09/05 12:37:21;;;;;;;12.45;2.80;;;;;;;;;;5131036;27;20072;-49
2022/09/05 12:39:53;;;;;;;13.02;3.85;;;;;;;;;;5127338;27;20023;-48
2022/09/05 12:42:37;;;;;;;17.90;5.15;;;;;;;;;;5124089;27;20114;-46
2022/09/05 12:45:08;;;;;;;21.13;3.30;;;;;;;;;;5129368;27;20115;-46
2022/09/05 12:47:52;;;;;;;6.70;2.45;;;;;;;;;;5137968;27;20015;-49
2022/09/05 12:50:18;;;;;;;13.80;8.30;;;;;;;;;;5132974;27;20028;-48
2022/09/05 12:52:45;;;;;;;19.85;3.20;;;;;;;;;;5132792;27;20058;-50
2022/09/05 12:55:24;;;;;;;15.30;3.97;;;;;;;;;;5129787;27;20266;-52
2022/09/05 12:57:53;;;;;;;14.85;3.63;;;;;;;;;;5129054;27;20022;-53
2022/09/05 13:00:22;;;;;;;24.73;4.88;;;;;;;;;;5135458;27;20050;-51
2022/09/05 13:02:58;;;;;;;20.55;12.55;;;;;;;;;;5129491;27;20033;-47
2022/09/05 13:05:44;;;;;;;14.10;4.63;;;;;;;;;;5133251;27;20097;-51
2022/09/05 13:08:17;;;;;;;2.67;1.08;;;;;;;;;;5133764;27;20512;-50
2022/09/05 13:10:44;;;;;;;8.63;1.58;;;;;;;;;;5130926;27;20023;-47
2022/09/05 13:13:09;;;;;;;5.00;1.75;;;;;;;;;;5135903;27;20019;-46
2022/09/05 13:15:37;;;;;;;8.00;3.33;;;;;;;;;;5133342;27;20473;-48
2022/09/05 13:18:07;;;;;;;7.75;3.47;;;;;;;;;;5127377;27;20252;-47
2022/09/05 13:20:38;;;;;;;5.53;1.80;;;;;;;;;;5125935;27;20034;-51
2022/09/05 13:23:07;;;;;;;14.27;3.50;;;;;;;;;;5131720;27;20015;-50
2022/09/05 13:25:34;;;;;;;7.57;4.22;;;;;;;;;;5133367;27;20106;-47
2022/09/05 13:28:02;;;;;;;18.63;2.78;;;;;;;;;;5134709;27;20097;-49
2022/09/05 13:30:29;;;;;;;10.93;2.95;;;;;;;;;;5134296;27;20071;-52
2022/09/05 13:33:02;;;;;;;7.10;3.28;;;;;;;;;;5133375;27;20022;-49
2022/09/05 13:35:28;;;;;;;8.48;3.08;;;;;;;;;;5138145;27;20128;-53
2022/09/05 13:37:54;;;;;;;9.65;3.17;;;;;;;;;;5137453;27;20118;-46
2022/09/05 13:40:23;;;;;;;12.50;4.28;;;;;;;;;;5139344;27;20542;-51
2022/09/05 13:43:09;;;;;;;8.25;2.47;;;;;;;;;;5134075;27;20050;-47
2022/09/05 13:45:47;;;;;;;3.13;2.05;;;;;;;;;;5134407;27;20033;-47
2022/09/05 13:48:26;;;;;;;6.18;2.55;;;;;;;;;;5125443;27;20349;-48
2022/09/05 13:50:53;;;;;;;3.00;1.58;;;;;;;;;;5141862;27;20023;-47
2022/09/05 13:53:25;;;;;;;13.43;2.58;;;;;;;;;;5136784;27;20019;-48
2022/09/05 13:55:52;;;;;;;18.35;2.90;;;;;;;;;;5138879;27;20050;-49
2022/09/05 13:58:37;;;;;;;11.90;2.72;;;;;;;;;;5134442;27;20047;-47
2022/09/05 14:01:21;;;;;;;9.25;3.55;;;;;;;;;;5136903;27;20481;-46
2022/09/05 14:03:48;;;;;;;16.23;4.10;;;;;;;;;;5140015;27;20114;-51
2022/09/05 14:06:14;;;;;;;12.27;4.82;;;;;;;;;;5140674;27;20148;-50
2022/09/05 14:08:42;;;;;;;7.45;1.52;;;;;;;;;;5134353;27;20510;-48
2022/09/05 14:11:20;;;;;;;10.93;2.85;;;;;;;;;;5137940;27;20022;-51
2022/09/05 14:14:08;;;;;;;13.88;4.68;;;;;;;;;;5138437;27;20111;-47
2022/09/05 14:16:36;;;;;;;6.05;1.88;;;;;;;;;;5138301;27;20027;-46
2022/09/05 14:21:46;;;;;;;10.43;4.30;;;;;;;;;;5143408;27;20091;-47
2022/09/05 14:24:14;;;;;;;7.47;1.85;;;;;;;;;;5142825;27;20034;-51
2022/09/05 14:26:44;;;;;;;7.40;2.83;;;;;;;;;;5137760;27;20054;-53
2022/09/05 14:29:15;;;;;;;14.80;3.90;;;;;;;;;;5137812;27;20022;-50
2022/09/05 14:31:41;;;;;;;19.00;4.40;;;;;;;;;;5133405;27;20803;-51
2022/09/05 14:34:12;;;;;;;16.27;3.60;;;;;;;;;;5136929;27;20470;-48
2022/09/05 14:36:37;;;;;;;;;;;;;;;;;;5138407;27;20019;-51
2022/09/05 14:39:08;;;;;;;12.37;9.37;;;;;;;;;;5135018;27;19964;-53
2022/09/05 14:41:48;;;;;;;4.65;2.80;;;;;;;;;;5130455;27;20019;-48
2022/09/05 14:44:13;;;;;;;;;;;;;;;;;;5135425;27;20022;-53
2022/09/05 14:46:58;;;;;;;6.55;2.40;;;;;;;;;;5131213;27;19987;-54
2022/09/05 14:49:43;;;;;;;9.88;3.35;;;;;;;;;;5128151;27;20066;-55
2022/09/05 14:52:13;;;;;;;23.65;6.88;;;;;;;;;;5131833;27;20019;-53
2022/09/05 14:54:38;;;;;;;13.80;4.80;;;;;;;;;;5129236;27;20162;-50
2022/09/05 14:57:05;;;;;;;14.82;4.13;;;;;;;;;;5140122;27;20743;-53
2022/09/05 14:59:37;;;;;;;5.75;1.80;;;;;;;;;;5134539;27;20030;-52
2022/09/05 15:02:09;;;;;;;7.53;2.60;;;;;;;;;;5136008;27;20027;-53
2022/09/05 15:04:42;;;;;;;12.98;5.05;;;;;;;;;;5131240;27;20074;-54
2022/09/05 15:07:15;;;;;;;6.13;2.58;;;;;;;;;;5137723;27;20015;-51
2022/09/05 15:09:40;;;;;;;13.23;5.57;;;;;;;;;;5127254;27;20500;-47
2022/09/05 15:12:13;;;;;;;4.95;2.38;;;;;;;;;;5129385;27;20019;-47
2022/09/05 15:14:49;;;;;;;7.68;3.35;;;;;;;;;;5128337;27;20479;-47
2022/09/05 15:17:19;;;;;;;3.88;2.13;;;;;;;;;;5135578;27;20061;-49